METAR Data
IDs: Format: Raw Decoded Include TAF

Data at: 0239 UTC 18 Jun 2019

PAKN 180154Z 30009KT 10SM FEW080 18/10 A2963 RMK AO2 SLP033 T01780100
PAKN 180054Z 31008KT 10SM CLR 17/10 A2963 RMK AO2 SLP034 T01720100
PAKN 172354Z 31009KT 10SM FEW085 18/10 A2963 RMK AO2 SLP034 T01780100 10194 20139 53002
PAKN 172254Z 31010KT 10SM FEW032 SCT060 19/09 A2963 RMK AO2 SLP032 T01940094
PAKN 172154Z 36007KT 10SM FEW090 19/08 A2962 RMK AO2 SLP031 T01890083
PAKN 172054Z VRB05KT 10SM CLR 18/08 A2962 RMK AO2 SLP031 T01780083 58003
PAKN 171954Z 35008KT 10SM FEW110 17/07 A2963 RMK AO2 SLP035 T01670072
PAKN 171854Z 36009KT 10SM BKN110 15/07 A2964 RMK AO2 SLP036 T01500067
PAKN 171754Z 35008KT 10SM SCT110 14/06 A2964 RMK AO2 SLP035 T01440061 10144 20044 58001
PAKN 171654Z 01004KT 10SM FEW065 12/06 A2964 RMK AO2 SLP036 T01170061
PAKN 171554Z 01007KT 10SM CLR 08/05 A2964 RMK AO2 SLP038 T00780050
PAKN 171454Z AUTO 35008KT 10SM FEW060 BKN120 06/04 A2964 RMK AO2 SLP036 T00610039 56008 TSNO
PAKN 171354Z 34003KT 10SM SCT042 SCT060 BKN090 BKN230 05/03 A2964 RMK AO2 SLP038 T00500033
PAKN 171254Z 36004KT 10SM SCT042 SCT060 BKN090 BKN230 06/04 A2965 RMK AO2 SLP040 T00560039
PAKN 171154Z 36006KT 10SM SCT050 BKN090 BKN230 06/04 A2966 RMK AO2 SLP044 60000 T00610039 10122 20061 58004
PAKN 171054Z 03003KT 10SM SCT050 BKN090 BKN230 07/04 A2967 RMK AO2 SLP047 T00720044
PAKN 170954Z 03004KT 10SM SCT050 BKN090 BKN230 07/04 A2968 RMK AO2 SLP049 T00720044
PAKN 170854Z 06006KT 10SM SCT050 BKN085 BKN230 09/06 A2967 RMK AO2 SLP048 60000 T00890056 401830072 51004
PAKN 170754Z 08007KT 10SM SCT050 BKN095 BKN230 11/06 A2967 RMK AO2 SLP048 T01060056
PAKN 170654Z 09009KT 10SM SCT050 BKN085 BKN230 11/04 A2967 RMK AO2 RAB21E31 SLP047 P0000 T01110044
PAKN 170554Z 10009KT 10SM BKN090 13/04 A2966 RMK AO2 SLP044 T01280044 10178 20128 53004
PAKN 170454Z 08009KT 10SM FEW050 14/05 A2966 RMK AO2 SLP042 T01390050
PAKN 170354Z 09012KT 10SM FEW060 16/04 A2965 RMK AO2 SLP039 T01560039
PAKN 170254Z 09010KT 10SM FEW070 16/04 A2965 RMK AO2 SLP040 T01610039 58001
PAKN 170154Z 10010KT 10SM FEW080 17/04 A2965 RMK AO2 SLP040 T01720044
PAKN 170054Z 10011G17KT 10SM FEW075 17/04 A2966 RMK AO2 SLP042 T01670039
PAKN 162354Z 11011G19KT 10SM SCT060 OVC075 17/05 A2965 RMK AO2 SLP041 T01670050 10183 20144 56002
PAKN 162254Z 09011KT 10SM OVC060 16/04 A2965 RMK AO2 SLP041 T01610044
PAKN 162154Z 08010G16KT 10SM FEW043 OVC070 17/06 A2965 RMK AO2 SLP041 T01720061
PAKN 162054Z 08010G15KT 10SM SCT038 BKN070 18/07 A2966 RMK AO2 SLP043 T01780072 56007
PAKN 161954Z 07008KT 10SM SCT035 SCT060 OVC095 17/08 A2966 RMK AO2 SLP045 T01670078
PAKN 161854Z 07009KT 10SM FEW033 BKN048 OVC095 15/08 A2967 RMK AO2 SLP047 T01500078
PAKN 161818Z 07005KT 10SM SCT025 SCT030 BKN055 14/08 A2967 RMK AO2 T01440083
PAKN 161754Z VRB03KT 10SM BKN027 OVC110 14/09 A2968 RMK AO2 SLP050 60000 T01440089 10144 20072 56003
PAKN 161654Z 09004KT 10SM BKN110 13/08 A2968 RMK AO2 SLP051 T01280083
PAKN 161554Z AUTO 00000KT 10SM OVC055 10/09 A2968 RMK AO2 SLP051 T01000089 TSNO
PAKN 161454Z AUTO 00000KT 9SM FEW049 BKN070 OVC090 09/08 A2969 RMK AO2 RAB17E39 SLP053 P0000 60000 T00890083 56004 TSNO